sensor_id;sensor_type;location;lat;lon;timestamp;P1;durP1;ratioP1;P2;durP2;ratioP2
12425;SDS011;6277;49.824;9.562;2024-03-29T00:00:35;3.80;;;1.30;;
12425;SDS011;6277;49.824;9.562;2024-03-29T00:03:01;4.25;;;1.05;;
12425;SDS011;6277;49.824;9.562;2024-03-29T00:05:26;2.05;;;0.80;;
12425;SDS011;6277;49.824;9.562;2024-03-29T00:07:52;1.42;;;0.75;;
12425;SDS011;6277;49.824;9.562;2024-03-29T00:10:17;1.95;;;1.00;;
12425;SDS011;6277;49.824;9.562;2024-03-29T00:12:43;2.80;;;1.10;;
12425;SDS011;6277;49.824;9.562;2024-03-29T00:15:08;3.60;;;1.33;;
12425;SDS011;6277;49.824;9.562;2024-03-29T00:17:34;2.92;;;1.38;;
12425;SDS011;6277;49.824;9.562;2024-03-29T00:20:00;3.03;;;1.63;;
12425;SDS011;6277;49.824;9.562;2024-03-29T00:22:26;2.58;;;1.45;;
12425;SDS011;6277;49.824;9.562;2024-03-29T00:24:52;3.92;;;1.45;;
12425;SDS011;6277;49.824;9.562;2024-03-29T00:27:18;1.92;;;1.00;;
12425;SDS011;6277;49.824;9.562;2024-03-29T00:29:43;3.60;;;1.83;;
12425;SDS011;6277;49.824;9.562;2024-03-29T00:32:11;3.97;;;1.73;;
12425;SDS011;6277;49.824;9.562;2024-03-29T00:34:36;3.75;;;1.95;;
12425;SDS011;6277;49.824;9.562;2024-03-29T00:37:02;4.57;;;1.75;;
12425;SDS011;6277;49.824;9.562;2024-03-29T00:39:27;5.65;;;2.45;;
12425;SDS011;6277;49.824;9.562;2024-03-29T00:41:53;5.72;;;2.00;;
12425;SDS011;6277;49.824;9.562;2024-03-29T00:44:18;3.92;;;1.65;;
12425;SDS011;6277;49.824;9.562;2024-03-29T00:46:44;3.65;;;1.60;;
12425;SDS011;6277;49.824;9.562;2024-03-29T00:49:09;3.67;;;1.42;;
12425;SDS011;6277;49.824;9.562;2024-03-29T00:51:35;3.05;;;1.30;;
12425;SDS011;6277;49.824;9.562;2024-03-29T00:54:01;3.53;;;1.42;;
12425;SDS011;6277;49.824;9.562;2024-03-29T00:56:26;3.72;;;1.75;;
12425;SDS011;6277;49.824;9.562;2024-03-29T00:58:52;6.30;;;2.15;;
12425;SDS011;6277;49.824;9.562;2024-03-29T01:01:17;4.68;;;1.80;;
12425;SDS011;6277;49.824;9.562;2024-03-29T01:03:43;4.85;;;1.75;;
12425;SDS011;6277;49.824;9.562;2024-03-29T01:06:08;4.47;;;1.88;;
12425;SDS011;6277;49.824;9.562;2024-03-29T01:08:34;5.07;;;1.40;;
12425;SDS011;6277;49.824;9.562;2024-03-29T01:11:00;3.50;;;1.60;;
12425;SDS011;6277;49.824;9.562;2024-03-29T01:13:25;3.58;;;1.60;;
12425;SDS011;6277;49.824;9.562;2024-03-29T01:15:50;3.85;;;1.63;;
12425;SDS011;6277;49.824;9.562;2024-03-29T01:18:16;5.05;;;1.40;;
12425;SDS011;6277;49.824;9.562;2024-03-29T01:20:42;4.18;;;1.65;;
12425;SDS011;6277;49.824;9.562;2024-03-29T01:23:07;3.13;;;1.48;;
12425;SDS011;6277;49.824;9.562;2024-03-29T01:25:33;3.13;;;1.27;;
12425;SDS011;6277;49.824;9.562;2024-03-29T01:27:59;2.63;;;1.00;;
12425;SDS011;6277;49.824;9.562;2024-03-29T01:30:24;3.15;;;1.05;;
12425;SDS011;6277;49.824;9.562;2024-03-29T01:32:51;2.97;;;0.90;;
12425;SDS011;6277;49.824;9.562;2024-03-29T01:35:17;2.53;;;0.90;;
12425;SDS011;6277;49.824;9.562;2024-03-29T01:37:43;2.65;;;0.90;;
12425;SDS011;6277;49.824;9.562;2024-03-29T01:40:08;1.92;;;0.82;;
12425;SDS011;6277;49.824;9.562;2024-03-29T01:42:35;1.80;;;0.70;;
12425;SDS011;6277;49.824;9.562;2024-03-29T01:45:01;1.13;;;0.70;;
12425;SDS011;6277;49.824;9.562;2024-03-29T01:47:26;1.63;;;0.75;;
12425;SDS011;6277;49.824;9.562;2024-03-29T01:49:52;2.38;;;0.90;;
12425;SDS011;6277;49.824;9.562;2024-03-29T01:52:17;1.52;;;0.80;;
12425;SDS011;6277;49.824;9.562;2024-03-29T01:54:45;1.33;;;0.73;;
12425;SDS011;6277;49.824;9.562;2024-03-29T01:57:12;2.38;;;0.70;;
12425;SDS011;6277;49.824;9.562;2024-03-29T01:59:38;2.30;;;0.50;;
12425;SDS011;6277;49.824;9.562;2024-03-29T02:02:07;1.30;;;0.70;;
12425;SDS011;6277;49.824;9.562;2024-03-29T02:04:33;2.25;;;0.52;;
12425;SDS011;6277;49.824;9.562;2024-03-29T02:06:59;2.17;;;0.60;;
12425;SDS011;6277;49.824;9.562;2024-03-29T02:09:25;2.15;;;0.50;;
12425;SDS011;6277;49.824;9.562;2024-03-29T02:11:51;1.52;;;0.63;;
12425;SDS011;6277;49.824;9.562;2024-03-29T02:14:16;2.33;;;1.10;;
12425;SDS011;6277;49.824;9.562;2024-03-29T02:16:42;1.67;;;0.70;;
12425;SDS011;6277;49.824;9.562;2024-03-29T02:19:07;0.88;;;0.60;;
12425;SDS011;6277;49.824;9.562;2024-03-29T02:21:33;2.30;;;0.70;;
12425;SDS011;6277;49.824;9.562;2024-03-29T02:24:06;1.05;;;0.65;;
12425;SDS011;6277;49.824;9.562;2024-03-29T02:26:32;0.57;;;0.50;;
12425;SDS011;6277;49.824;9.562;2024-03-29T02:29:01;1.17;;;0.57;;
12425;SDS011;6277;49.824;9.562;2024-03-29T02:31:27;1.52;;;0.50;;
12425;SDS011;6277;49.824;9.562;2024-03-29T02:33:52;1.63;;;0.47;;
12425;SDS011;6277;49.824;9.562;2024-03-29T02:36:18;0.80;;;0.43;;
12425;SDS011;6277;49.824;9.562;2024-03-29T02:38:44;1.25;;;0.65;;
12425;SDS011;6277;49.824;9.562;2024-03-29T02:41:09;1.92;;;0.70;;
12425;SDS011;6277;49.824;9.562;2024-03-29T02:43:35;0.95;;;0.57;;
12425;SDS011;6277;49.824;9.562;2024-03-29T02:46:00;2.35;;;0.63;;
12425;SDS011;6277;49.824;9.562;2024-03-29T02:48:26;1.15;;;0.50;;
12425;SDS011;6277;49.824;9.562;2024-03-29T02:50:51;1.58;;;0.50;;
12425;SDS011;6277;49.824;9.562;2024-03-29T02:53:17;1.50;;;0.60;;
12425;SDS011;6277;49.824;9.562;2024-03-29T02:55:43;0.95;;;0.43;;
12425;SDS011;6277;49.824;9.562;2024-03-29T02:58:08;1.02;;;0.50;;
12425;SDS011;6277;49.824;9.562;2024-03-29T03:00:34;1.33;;;0.70;;
12425;SDS011;6277;49.824;9.562;2024-03-29T03:02:59;2.25;;;0.47;;
12425;SDS011;6277;49.824;9.562;2024-03-29T03:05:25;1.48;;;0.50;;
12425;SDS011;6277;49.824;9.562;2024-03-29T03:07:50;1.52;;;0.70;;
12425;SDS011;6277;49.824;9.562;2024-03-29T03:10:34;1.73;;;0.52;;
12425;SDS011;6277;49.824;9.562;2024-03-29T03:13:18;1.67;;;0.50;;
12425;SDS011;6277;49.824;9.562;2024-03-29T03:15:44;0.90;;;0.38;;
12425;SDS011;6277;49.824;9.562;2024-03-29T03:18:09;1.88;;;0.60;;
12425;SDS011;6277;49.824;9.562;2024-03-29T03:20:35;1.08;;;0.50;;
12425;SDS011;6277;49.824;9.562;2024-03-29T03:23:03;2.63;;;0.68;;
12425;SDS011;6277;49.824;9.562;2024-03-29T03:25:28;1.25;;;0.40;;
12425;SDS011;6277;49.824;9.562;2024-03-29T03:27:54;1.77;;;0.52;;
12425;SDS011;6277;49.824;9.562;2024-03-29T03:30:20;1.27;;;0.30;;
12425;SDS011;6277;49.824;9.562;2024-03-29T03:32:47;1.25;;;0.35;;
12425;SDS011;6277;49.824;9.562;2024-03-29T03:35:12;1.08;;;0.40;;
12425;SDS011;6277;49.824;9.562;2024-03-29T03:37:38;1.45;;;0.40;;
12425;SDS011;6277;49.824;9.562;2024-03-29T03:40:04;1.15;;;0.50;;
12425;SDS011;6277;49.824;9.562;2024-03-29T03:42:31;1.88;;;0.50;;
12425;SDS011;6277;49.824;9.562;2024-03-29T03:44:57;0.82;;;0.30;;
12425;SDS011;6277;49.824;9.562;2024-03-29T03:47:22;2.63;;;0.47;;
12425;SDS011;6277;49.824;9.562;2024-03-29T03:49:48;1.17;;;0.50;;
12425;SDS011;6277;49.824;9.562;2024-03-29T03:52:13;1.45;;;0.60;;
12425;SDS011;6277;49.824;9.562;2024-03-29T03:54:39;1.63;;;0.50;;
12425;SDS011;6277;49.824;9.562;2024-03-29T03:57:05;1.17;;;0.50;;
12425;SDS011;6277;49.824;9.562;2024-03-29T03:59:30;2.03;;;0.50;;
12425;SDS011;6277;49.824;9.562;2024-03-29T04:01:56;1.80;;;0.50;;
12425;SDS011;6277;49.824;9.562;2024-03-29T04:04:22;2.53;;;0.73;;
12425;SDS011;6277;49.824;9.562;2024-03-29T04:06:47;0.95;;;0.40;;
12425;SDS011;6277;49.824;9.562;2024-03-29T04:09:15;1.33;;;0.45;;
12425;SDS011;6277;49.824;9.562;2024-03-29T04:11:41;2.67;;;0.50;;
12425;SDS011;6277;49.824;9.562;2024-03-29T04:14:08;1.85;;;0.60;;
12425;SDS011;6277;49.824;9.562;2024-03-29T04:16:33;1.83;;;0.47;;
12425;SDS011;6277;49.824;9.562;2024-03-29T04:18:59;1.83;;;0.47;;
12425;SDS011;6277;49.824;9.562;2024-03-29T04:21:24;0.93;;;0.40;;
12425;SDS011;6277;49.824;9.562;2024-03-29T04:23:50;1.77;;;0.50;;
12425;SDS011;6277;49.824;9.562;2024-03-29T04:26:17;1.77;;;0.60;;
12425;SDS011;6277;49.824;9.562;2024-03-29T04:28:42;1.15;;;0.43;;
12425;SDS011;6277;49.824;9.562;2024-03-29T04:31:08;2.05;;;0.43;;
12425;SDS011;6277;49.824;9.562;2024-03-29T04:33:33;1.25;;;0.50;;
12425;SDS011;6277;49.824;9.562;2024-03-29T04:35:59;1.08;;;0.57;;
12425;SDS011;6277;49.824;9.562;2024-03-29T04:38:26;0.85;;;0.50;;
12425;SDS011;6277;49.824;9.562;2024-03-29T04:40:53;0.80;;;0.45;;
12425;SDS011;6277;49.824;9.562;2024-03-29T04:43:21;1.20;;;0.47;;
12425;SDS011;6277;49.824;9.562;2024-03-29T04:45:47;1.60;;;0.60;;
12425;SDS011;6277;49.824;9.562;2024-03-29T04:48:13;2.03;;;0.60;;
12425;SDS011;6277;49.824;9.562;2024-03-29T04:50:39;1.08;;;0.47;;
12425;SDS011;6277;49.824;9.562;2024-03-29T04:53:05;1.55;;;0.65;;
12425;SDS011;6277;49.824;9.562;2024-03-29T04:55:32;1.05;;;0.50;;
12425;SDS011;6277;49.824;9.562;2024-03-29T04:57:57;1.23;;;0.60;;
12425;SDS011;6277;49.824;9.562;2024-03-29T05:00:23;1.85;;;0.47;;
12425;SDS011;6277;49.824;9.562;2024-03-29T05:02:48;1.50;;;0.60;;
12425;SDS011;6277;49.824;9.562;2024-03-29T05:05:14;1.30;;;0.50;;
12425;SDS011;6277;49.824;9.562;2024-03-29T05:07:40;1.63;;;0.70;;
12425;SDS011;6277;49.824;9.562;2024-03-29T05:10:05;3.50;;;0.70;;
12425;SDS011;6277;49.824;9.562;2024-03-29T05:12:32;0.95;;;0.57;;
12425;SDS011;6277;49.824;9.562;2024-03-29T05:14:58;1.65;;;0.60;;
12425;SDS011;6277;49.824;9.562;2024-03-29T05:17:24;0.90;;;0.55;;
12425;SDS011;6277;49.824;9.562;2024-03-29T05:19:53;2.13;;;0.60;;
12425;SDS011;6277;49.824;9.562;2024-03-29T05:22:19;1.65;;;0.50;;
12425;SDS011;6277;49.824;9.562;2024-03-29T05:24:44;2.25;;;0.63;;
12425;SDS011;6277;49.824;9.562;2024-03-29T05:27:11;2.85;;;0.70;;
12425;SDS011;6277;49.824;9.562;2024-03-29T05:29:37;1.60;;;0.60;;
12425;SDS011;6277;49.824;9.562;2024-03-29T05:32:03;4.25;;;1.75;;
12425;SDS011;6277;49.824;9.562;2024-03-29T05:34:29;3.10;;;1.73;;
12425;SDS011;6277;49.824;9.562;2024-03-29T05:36:55;3.33;;;1.33;;
12425;SDS011;6277;49.824;9.562;2024-03-29T05:39:20;2.30;;;1.08;;
12425;SDS011;6277;49.824;9.562;2024-03-29T05:41:46;3.28;;;1.60;;
12425;SDS011;6277;49.824;9.562;2024-03-29T05:44:12;3.42;;;1.40;;
12425;SDS011;6277;49.824;9.562;2024-03-29T05:46:38;1.80;;;1.00;;
12425;SDS011;6277;49.824;9.562;2024-03-29T05:49:05;2.15;;;1.30;;
12425;SDS011;6277;49.824;9.562;2024-03-29T05:51:31;1.88;;;1.70;;
12425;SDS011;6277;49.824;9.562;2024-03-29T05:53:56;1.48;;;0.90;;
12425;SDS011;6277;49.824;9.562;2024-03-29T05:56:22;1.40;;;1.10;;
12425;SDS011;6277;49.824;9.562;2024-03-29T05:58:47;5.63;;;2.28;;
12425;SDS011;6277;49.824;9.562;2024-03-29T06:01:13;2.80;;;1.50;;
12425;SDS011;6277;49.824;9.562;2024-03-29T06:03:38;3.35;;;1.98;;
12425;SDS011;6277;49.824;9.562;2024-03-29T06:06:04;2.85;;;1.30;;
12425;SDS011;6277;49.824;9.562;2024-03-29T06:08:30;2.35;;;1.10;;
12425;SDS011;6277;49.824;9.562;2024-03-29T06:10:55;2.03;;;1.25;;
12425;SDS011;6277;49.824;9.562;2024-03-29T06:13:22;1.10;;;0.90;;
12425;SDS011;6277;49.824;9.562;2024-03-29T06:16:06;2.53;;;1.20;;
12425;SDS011;6277;49.824;9.562;2024-03-29T06:18:50;2.30;;;0.93;;
12425;SDS011;6277;49.824;9.562;2024-03-29T06:21:16;1.80;;;0.93;;
12425;SDS011;6277;49.824;9.562;2024-03-29T06:23:41;1.70;;;0.90;;
12425;SDS011;6277;49.824;9.562;2024-03-29T06:26:07;3.10;;;1.23;;
12425;SDS011;6277;49.824;9.562;2024-03-29T06:28:32;2.20;;;1.00;;
12425;SDS011;6277;49.824;9.562;2024-03-29T06:30:58;2.28;;;1.40;;
12425;SDS011;6277;49.824;9.562;2024-03-29T06:33:25;1.58;;;1.27;;
12425;SDS011;6277;49.824;9.562;2024-03-29T06:35:54;2.50;;;1.23;;
12425;SDS011;6277;49.824;9.562;2024-03-29T06:38:20;2.25;;;1.50;;
12425;SDS011;6277;49.824;9.562;2024-03-29T06:40:45;2.22;;;1.67;;
12425;SDS011;6277;49.824;9.562;2024-03-29T06:43:11;2.95;;;1.83;;
12425;SDS011;6277;49.824;9.562;2024-03-29T06:45:39;3.72;;;2.42;;
12425;SDS011;6277;49.824;9.562;2024-03-29T06:48:07;3.00;;;2.08;;
12425;SDS011;6277;49.824;9.562;2024-03-29T06:50:33;1.98;;;1.20;;
12425;SDS011;6277;49.824;9.562;2024-03-29T06:52:59;1.48;;;0.90;;
12425;SDS011;6277;49.824;9.562;2024-03-29T06:55:25;1.58;;;1.10;;
12425;SDS011;6277;49.824;9.562;2024-03-29T06:57:50;1.30;;;0.90;;
12425;SDS011;6277;49.824;9.562;2024-03-29T07:00:16;1.15;;;0.70;;
12425;SDS011;6277;49.824;9.562;2024-03-29T07:02:42;1.08;;;0.95;;
12425;SDS011;6277;49.824;9.562;2024-03-29T07:05:08;1.42;;;0.90;;
12425;SDS011;6277;49.824;9.562;2024-03-29T07:07:36;2.67;;;0.60;;
12425;SDS011;6277;49.824;9.562;2024-03-29T07:10:02;0.77;;;0.70;;
12425;SDS011;6277;49.824;9.562;2024-03-29T07:12:28;1.38;;;0.80;;
12425;SDS011;6277;49.824;9.562;2024-03-29T07:14:53;1.50;;;0.82;;
12425;SDS011;6277;49.824;9.562;2024-03-29T07:17:19;0.57;;;0.55;;
12425;SDS011;6277;49.824;9.562;2024-03-29T07:19:44;1.63;;;0.55;;
12425;SDS011;6277;49.824;9.562;2024-03-29T07:22:10;1.33;;;0.60;;
12425;SDS011;6277;49.824;9.562;2024-03-29T07:24:35;1.83;;;0.47;;
12425;SDS011;6277;49.824;9.562;2024-03-29T07:27:01;0.98;;;0.50;;
12425;SDS011;6277;49.824;9.562;2024-03-29T07:29:26;2.97;;;1.67;;
12425;SDS011;6277;49.824;9.562;2024-03-29T07:31:52;2.03;;;1.02;;
12425;SDS011;6277;49.824;9.562;2024-03-29T07:34:18;1.45;;;0.80;;
12425;SDS011;6277;49.824;9.562;2024-03-29T07:36:44;2.10;;;1.17;;
12425;SDS011;6277;49.824;9.562;2024-03-29T07:39:10;1.45;;;0.80;;
12425;SDS011;6277;49.824;9.562;2024-03-29T07:41:35;0.73;;;0.60;;
12425;SDS011;6277;49.824;9.562;2024-03-29T07:44:01;0.73;;;0.55;;
12425;SDS011;6277;49.824;9.562;2024-03-29T07:46:32;0.85;;;0.60;;
12425;SDS011;6277;49.824;9.562;2024-03-29T07:48:58;0.57;;;0.50;;
12425;SDS011;6277;49.824;9.562;2024-03-29T07:51:24;0.47;;;0.47;;
12425;SDS011;6277;49.824;9.562;2024-03-29T07:53:50;1.38;;;0.75;;
12425;SDS011;6277;49.824;9.562;2024-03-29T07:56:15;1.23;;;0.68;;
12425;SDS011;6277;49.824;9.562;2024-03-29T07:58:42;1.17;;;0.80;;
12425;SDS011;6277;49.824;9.562;2024-03-29T08:01:07;0.80;;;0.60;;
12425;SDS011;6277;49.824;9.562;2024-03-29T08:03:33;1.00;;;0.60;;
12425;SDS011;6277;49.824;9.562;2024-03-29T08:05:59;1.42;;;0.90;;
12425;SDS011;6277;49.824;9.562;2024-03-29T08:08:31;1.75;;;0.80;;
12425;SDS011;6277;49.824;9.562;2024-03-29T08:10:57;1.10;;;0.82;;
12425;SDS011;6277;49.824;9.562;2024-03-29T08:13:24;1.85;;;1.13;;
12425;SDS011;6277;49.824;9.562;2024-03-29T08:15:55;1.35;;;0.88;;
12425;SDS011;6277;49.824;9.562;2024-03-29T08:18:22;1.38;;;0.88;;
12425;SDS011;6277;49.824;9.562;2024-03-29T08:20:48;1.98;;;1.25;;
12425;SDS011;6277;49.824;9.562;2024-03-29T08:23:13;1.73;;;1.30;;
12425;SDS011;6277;49.824;9.562;2024-03-29T08:25:39;2.17;;;1.13;;
12425;SDS011;6277;49.824;9.562;2024-03-29T08:28:04;2.08;;;1.10;;
12425;SDS011;6277;49.824;9.562;2024-03-29T08:30:30;1.38;;;0.80;;
12425;SDS011;6277;49.824;9.562;2024-03-29T08:33:00;1.70;;;1.10;;
12425;SDS011;6277;49.824;9.562;2024-03-29T08:35:27;1.35;;;0.80;;
12425;SDS011;6277;49.824;9.562;2024-03-29T08:37:57;1.40;;;0.75;;
12425;SDS011;6277;49.824;9.562;2024-03-29T08:40:22;2.42;;;1.20;;
12425;SDS011;6277;49.824;9.562;2024-03-29T08:42:49;1.50;;;1.10;;
12425;SDS011;6277;49.824;9.562;2024-03-29T08:45:15;1.27;;;0.90;;
12425;SDS011;6277;49.824;9.562;2024-03-29T08:47:41;2.75;;;1.40;;
12425;SDS011;6277;49.824;9.562;2024-03-29T08:50:06;2.90;;;1.40;;
12425;SDS011;6277;49.824;9.562;2024-03-29T08:52:33;2.47;;;0.90;;
12425;SDS011;6277;49.824;9.562;2024-03-29T08:54:59;2.42;;;1.38;;
12425;SDS011;6277;49.824;9.562;2024-03-29T08:57:24;1.83;;;1.10;;
12425;SDS011;6277;49.824;9.562;2024-03-29T08:59:50;3.08;;;1.25;;
12425;SDS011;6277;49.824;9.562;2024-03-29T09:02:15;2.13;;;1.00;;
12425;SDS011;6277;49.824;9.562;2024-03-29T09:04:41;1.67;;;0.85;;
12425;SDS011;6277;49.824;9.562;2024-03-29T09:07:06;2.28;;;1.10;;
12425;SDS011;6277;49.824;9.562;2024-03-29T09:09:32;1.38;;;0.90;;
12425;SDS011;6277;49.824;9.562;2024-03-29T09:11:58;1.50;;;0.93;;
12425;SDS011;6277;49.824;9.562;2024-03-29T09:14:24;1.67;;;1.10;;
12425;SDS011;6277;49.824;9.562;2024-03-29T09:16:50;1.00;;;0.70;;
12425;SDS011;6277;49.824;9.562;2024-03-29T09:19:16;0.90;;;0.60;;
12425;SDS011;6277;49.824;9.562;2024-03-29T09:21:41;1.60;;;1.00;;
12425;SDS011;6277;49.824;9.562;2024-03-29T09:24:07;1.60;;;0.68;;
12425;SDS011;6277;49.824;9.562;2024-03-29T09:26:33;1.92;;;0.80;;
12425;SDS011;6277;49.824;9.562;2024-03-29T09:28:58;1.10;;;0.70;;
12425;SDS011;6277;49.824;9.562;2024-03-29T09:31:24;1.85;;;0.70;;
12425;SDS011;6277;49.824;9.562;2024-03-29T09:33:49;3.50;;;1.65;;
12425;SDS011;6277;49.824;9.562;2024-03-29T09:36:20;4.47;;;2.42;;
12425;SDS011;6277;49.824;9.562;2024-03-29T09:38:48;3.33;;;2.05;;
12425;SDS011;6277;49.824;9.562;2024-03-29T09:41:17;2.17;;;1.20;;
12425;SDS011;6277;49.824;9.562;2024-03-29T09:43:44;2.63;;;1.20;;
12425;SDS011;6277;49.824;9.562;2024-03-29T09:46:13;1.67;;;1.13;;
12425;SDS011;6277;49.824;9.562;2024-03-29T09:48:40;1.55;;;1.08;;
12425;SDS011;6277;49.824;9.562;2024-03-29T09:51:08;2.20;;;0.95;;
12425;SDS011;6277;49.824;9.562;2024-03-29T09:53:35;1.65;;;0.90;;
12425;SDS011;6277;49.824;9.562;2024-03-29T09:56:03;1.90;;;0.98;;
12425;SDS011;6277;49.824;9.562;2024-03-29T09:58:30;1.02;;;0.70;;
12425;SDS011;6277;49.824;9.562;2024-03-29T10:00:56;2.92;;;0.90;;
12425;SDS011;6277;49.824;9.562;2024-03-29T10:03:25;1.45;;;0.70;;
12425;SDS011;6277;49.824;9.562;2024-03-29T10:06:01;2.67;;;0.80;;
12425;SDS011;6277;49.824;9.562;2024-03-29T10:08:28;1.77;;;0.90;;
12425;SDS011;6277;49.824;9.562;2024-03-29T10:10:55;1.95;;;0.90;;
12425;SDS011;6277;49.824;9.562;2024-03-29T10:13:21;1.40;;;0.73;;
12425;SDS011;6277;49.824;9.562;2024-03-29T10:15:51;1.65;;;0.70;;
12425;SDS011;6277;49.824;9.562;2024-03-29T10:18:20;1.02;;;0.70;;
12425;SDS011;6277;49.824;9.562;2024-03-29T10:23:26;2.35;;;0.90;;
12425;SDS011;6277;49.824;9.562;2024-03-29T10:25:52;1.30;;;0.77;;
12425;SDS011;6277;49.824;9.562;2024-03-29T10:28:18;1.58;;;0.60;;
12425;SDS011;6277;49.824;9.562;2024-03-29T10:30:44;1.30;;;0.52;;
12425;SDS011;6277;49.824;9.562;2024-03-29T10:33:09;1.30;;;0.50;;
12425;SDS011;6277;49.824;9.562;2024-03-29T10:35:35;1.60;;;0.57;;
12425;SDS011;6277;49.824;9.562;2024-03-29T10:38:04;1.23;;;0.55;;
12425;SDS011;6277;49.824;9.562;2024-03-29T10:40:29;1.20;;;0.57;;
12425;SDS011;6277;49.824;9.562;2024-03-29T10:42:55;0.60;;;0.38;;
12425;SDS011;6277;49.824;9.562;2024-03-29T10:45:22;1.10;;;0.40;;
12425;SDS011;6277;49.824;9.562;2024-03-29T10:47:49;1.73;;;0.50;;
12425;SDS011;6277;49.824;9.562;2024-03-29T10:50:17;2.97;;;0.55;;
12425;SDS011;6277;49.824;9.562;2024-03-29T10:52:46;0.63;;;0.40;;
12425;SDS011;6277;49.824;9.562;2024-03-29T10:55:13;1.10;;;0.50;;
12425;SDS011;6277;49.824;9.562;2024-03-29T10:57:41;0.70;;;0.60;;
12425;SDS011;6277;49.824;9.562;2024-03-29T11:00:13;0.90;;;0.50;;
12425;SDS011;6277;49.824;9.562;2024-03-29T11:05:31;0.40;;;0.40;;
12425;SDS011;6277;49.824;9.562;2024-03-29T11:07:58;1.58;;;0.70;;
12425;SDS011;6277;49.824;9.562;2024-03-29T11:10:29;0.90;;;0.80;;
12425;SDS011;6277;49.824;9.562;2024-03-29T11:15:52;1.05;;;0.60;;
12425;SDS011;6277;49.824;9.562;2024-03-29T11:18:19;0.98;;;0.40;;
12425;SDS011;6277;49.824;9.562;2024-03-29T11:20:46;1.02;;;0.47;;
12425;SDS011;6277;49.824;9.562;2024-03-29T11:23:16;0.50;;;0.38;;
12425;SDS011;6277;49.824;9.562;2024-03-29T11:25:44;9.85;;;0.80;;
12425;SDS011;6277;49.824;9.562;2024-03-29T11:28:14;0.57;;;0.40;;
12425;SDS011;6277;49.824;9.562;2024-03-29T11:30:49;0.73;;;0.40;;
12425;SDS011;6277;49.824;9.562;2024-03-29T11:36:21;1.42;;;0.40;;
12425;SDS011;6277;49.824;9.562;2024-03-29T11:38:54;0.63;;;0.32;;
12425;SDS011;6277;49.824;9.562;2024-03-29T11:41:25;0.47;;;0.30;;
12425;SDS011;6277;49.824;9.562;2024-03-29T11:43:52;1.00;;;0.47;;
12425;SDS011;6277;49.824;9.562;2024-03-29T11:46:22;0.80;;;0.40;;
12425;SDS011;6277;49.824;9.562;2024-03-29T11:48:48;0.88;;;0.47;;
12425;SDS011;6277;49.824;9.562;2024-03-29T11:51:18;0.45;;;0.32;;
12425;SDS011;6277;49.824;9.562;2024-03-29T11:53:49;1.02;;;0.57;;
12425;SDS011;6277;49.824;9.562;2024-03-29T11:56:16;1.35;;;0.82;;
12425;SDS011;6277;49.824;9.562;2024-03-29T11:58:42;1.40;;;1.10;;
12425;SDS011;6277;49.824;9.562;2024-03-29T12:01:07;2.03;;;1.50;;
12425;SDS011;6277;49.824;9.562;2024-03-29T12:03:39;1.73;;;1.15;;
12425;SDS011;6277;49.824;9.562;2024-03-29T12:06:06;1.38;;;1.23;;
12425;SDS011;6277;49.824;9.562;2024-03-29T12:08:33;2.28;;;1.20;;
12425;SDS011;6277;49.824;9.562;2024-03-29T12:11:00;1.30;;;1.00;;
12425;SDS011;6277;49.824;9.562;2024-03-29T12:13:27;2.20;;;1.20;;
12425;SDS011;6277;49.824;9.562;2024-03-29T12:15:53;1.25;;;1.08;;
12425;SDS011;6277;49.824;9.562;2024-03-29T12:18:20;1.88;;;1.10;;
12425;SDS011;6277;49.824;9.562;2024-03-29T12:20:47;1.13;;;0.88;;
12425;SDS011;6277;49.824;9.562;2024-03-29T12:23:15;1.10;;;0.88;;
12425;SDS011;6277;49.824;9.562;2024-03-29T12:25:41;1.17;;;0.80;;
12425;SDS011;6277;49.824;9.562;2024-03-29T12:28:07;1.00;;;0.73;;
12425;SDS011;6277;49.824;9.562;2024-03-29T12:30:34;1.92;;;0.80;;
12425;SDS011;6277;49.824;9.562;2024-03-29T12:33:01;2.42;;;1.00;;
12425;SDS011;6277;49.824;9.562;2024-03-29T12:35:27;1.70;;;1.10;;
12425;SDS011;6277;49.824;9.562;2024-03-29T12:37:57;2.17;;;1.08;;
12425;SDS011;6277;49.824;9.562;2024-03-29T12:40:25;1.40;;;1.08;;
12425;SDS011;6277;49.824;9.562;2024-03-29T12:42:52;1.55;;;1.20;;
12425;SDS011;6277;49.824;9.562;2024-03-29T12:45:18;2.28;;;1.10;;
12425;SDS011;6277;49.824;9.562;2024-03-29T12:47:45;1.45;;;1.10;;
12425;SDS011;6277;49.824;9.562;2024-03-29T12:52:57;1.92;;;1.10;;
12425;SDS011;6277;49.824;9.562;2024-03-29T12:55:24;2.83;;;1.75;;
12425;SDS011;6277;49.824;9.562;2024-03-29T12:57:56;2.13;;;1.42;;
12425;SDS011;6277;49.824;9.562;2024-03-29T13:00:25;2.00;;;1.10;;
12425;SDS011;6277;49.824;9.562;2024-03-29T13:02:51;2.70;;;1.20;;
12425;SDS011;6277;49.824;9.562;2024-03-29T13:05:17;1.55;;;1.08;;
12425;SDS011;6277;49.824;9.562;2024-03-29T13:07:42;1.83;;;1.25;;
12425;SDS011;6277;49.824;9.562;2024-03-29T13:10:08;1.30;;;1.20;;
12425;SDS011;6277;49.824;9.562;2024-03-29T13:12:44;1.85;;;1.15;;
12425;SDS011;6277;49.824;9.562;2024-03-29T13:15:21;1.48;;;1.20;;
12425;SDS011;6277;49.824;9.562;2024-03-29T13:17:49;2.08;;;1.23;;
12425;SDS011;6277;49.824;9.562;2024-03-29T13:20:16;2.10;;;1.52;;
12425;SDS011;6277;49.824;9.562;2024-03-29T13:22:42;1.67;;;1.35;;
12425;SDS011;6277;49.824;9.562;2024-03-29T13:25:10;1.65;;;1.25;;
12425;SDS011;6277;49.824;9.562;2024-03-29T13:27:37;2.03;;;1.45;;
12425;SDS011;6277;49.824;9.562;2024-03-29T13:30:05;2.28;;;1.40;;
12425;SDS011;6277;49.824;9.562;2024-03-29T13:32:34;1.40;;;1.20;;
12425;SDS011;6277;49.824;9.562;2024-03-29T13:35:00;1.50;;;0.90;;
12425;SDS011;6277;49.824;9.562;2024-03-29T13:37:26;2.38;;;1.15;;
12425;SDS011;6277;49.824;9.562;2024-03-29T13:39:53;1.45;;;1.17;;
12425;SDS011;6277;49.824;9.562;2024-03-29T13:42:20;1.48;;;1.02;;
12425;SDS011;6277;49.824;9.562;2024-03-29T13:44:46;6.30;;;1.50;;
12425;SDS011;6277;49.824;9.562;2024-03-29T13:47:14;3.35;;;0.88;;
12425;SDS011;6277;49.824;9.562;2024-03-29T13:49:41;1.27;;;0.98;;
12425;SDS011;6277;49.824;9.562;2024-03-29T13:52:07;2.35;;;1.00;;
12425;SDS011;6277;49.824;9.562;2024-03-29T13:54:33;2.80;;;1.15;;
12425;SDS011;6277;49.824;9.562;2024-03-29T13:56:59;4.53;;;3.00;;
12425;SDS011;6277;49.824;9.562;2024-03-29T13:59:25;4.90;;;3.28;;
12425;SDS011;6277;49.824;9.562;2024-03-29T14:01:52;49.08;;;27.58;;
12425;SDS011;6277;49.824;9.562;2024-03-29T14:04:17;56.95;;;33.47;;
12425;SDS011;6277;49.824;9.562;2024-03-29T14:06:43;57.55;;;37.30;;
12425;SDS011;6277;49.824;9.562;2024-03-29T14:09:08;36.80;;;26.08;;
12425;SDS011;6277;49.824;9.562;2024-03-29T14:11:34;24.35;;;18.48;;
12425;SDS011;6277;49.824;9.562;2024-03-29T14:13:59;19.40;;;14.68;;
12425;SDS011;6277;49.824;9.562;2024-03-29T14:16:25;10.55;;;8.48;;
12425;SDS011;6277;49.824;9.562;2024-03-29T14:18:51;8.60;;;6.28;;
12425;SDS011;6277;49.824;9.562;2024-03-29T14:21:16;4.72;;;3.40;;
12425;SDS011;6277;49.824;9.562;2024-03-29T14:23:42;2.78;;;2.35;;
12425;SDS011;6277;49.824;9.562;2024-03-29T14:26:07;2.28;;;2.00;;
12425;SDS011;6277;49.824;9.562;2024-03-29T14:28:33;2.60;;;1.70;;
12425;SDS011;6277;49.824;9.562;2024-03-29T14:30:58;1.52;;;1.20;;
12425;SDS011;6277;49.824;9.562;2024-03-29T14:33:24;1.50;;;1.10;;
12425;SDS011;6277;49.824;9.562;2024-03-29T14:35:49;1.10;;;1.00;;
12425;SDS011;6277;49.824;9.562;2024-03-29T14:38:15;1.73;;;1.42;;
12425;SDS011;6277;49.824;9.562;2024-03-29T14:40:41;2.53;;;1.65;;
12425;SDS011;6277;49.824;9.562;2024-03-29T14:43:07;2.53;;;1.58;;
12425;SDS011;6277;49.824;9.562;2024-03-29T14:45:32;2.08;;;1.40;;
12425;SDS011;6277;49.824;9.562;2024-03-29T14:47:58;3.00;;;1.95;;
12425;SDS011;6277;49.824;9.562;2024-03-29T14:50:24;3.08;;;1.88;;
12425;SDS011;6277;49.824;9.562;2024-03-29T14:52:49;2.67;;;1.35;;
12425;SDS011;6277;49.824;9.562;2024-03-29T14:55:15;3.08;;;1.70;;
12425;SDS011;6277;49.824;9.562;2024-03-29T14:57:40;4.15;;;2.33;;
12425;SDS011;6277;49.824;9.562;2024-03-29T15:00:06;2.20;;;1.45;;
12425;SDS011;6277;49.824;9.562;2024-03-29T15:02:34;1.20;;;0.90;;
12425;SDS011;6277;49.824;9.562;2024-03-29T15:04:59;1.90;;;0.85;;
12425;SDS011;6277;49.824;9.562;2024-03-29T15:07:25;1.27;;;0.90;;
12425;SDS011;6277;49.824;9.562;2024-03-29T15:09:50;1.52;;;0.68;;